createdAt,value
2018-07-25T00:01:52.920Z,24.10
2018-07-25T00:04:21.946Z,24.00
2018-07-25T00:06:50.225Z,24.00
2018-07-25T00:09:18.481Z,23.80
2018-07-25T00:11:46.757Z,23.80
2018-07-25T00:14:15.010Z,23.90
2018-07-25T00:16:43.285Z,23.90
2018-07-25T00:19:11.525Z,23.80
2018-07-25T00:21:39.848Z,23.80
2018-07-25T00:24:08.835Z,23.90
2018-07-25T00:26:37.133Z,23.90
2018-07-25T00:29:05.402Z,23.80
2018-07-25T00:31:33.678Z,23.90
2018-07-25T00:34:01.960Z,23.80
2018-07-25T00:36:30.242Z,23.80
2018-07-25T00:38:58.494Z,23.80
2018-07-25T00:41:26.774Z,23.80
2018-07-25T00:43:55.052Z,23.70
2018-07-25T00:46:23.322Z,23.60
2018-07-25T00:48:51.582Z,23.60
2018-07-25T00:51:19.859Z,23.50
2018-07-25T00:53:48.875Z,23.40
2018-07-25T00:56:17.170Z,23.40
2018-07-25T00:58:45.439Z,23.50
2018-07-25T01:01:13.719Z,23.40
2018-07-25T01:03:41.989Z,23.30
2018-07-25T01:06:10.251Z,23.30
2018-07-25T01:08:38.521Z,23.20
2018-07-25T01:11:06.766Z,23.10
2018-07-25T01:13:35.037Z,23.10
2018-07-25T01:16:04.062Z,23.10
2018-07-25T01:18:32.375Z,23.10
2018-07-25T01:21:00.601Z,23.10
2018-07-25T01:23:28.859Z,23.10
2018-07-25T01:25:57.123Z,23.00
2018-07-25T01:28:26.147Z,23.00
2018-07-25T01:30:54.424Z,23.00
2018-07-25T01:33:22.703Z,23.00
2018-07-25T01:35:51.005Z,23.00
2018-07-25T01:38:19.248Z,23.10
2018-07-25T01:40:47.563Z,23.00
2018-07-25T01:43:15.814Z,23.10
2018-07-25T01:45:44.078Z,23.10
2018-07-25T01:48:12.337Z,23.10
2018-07-25T01:50:40.632Z,22.90
2018-07-25T01:53:08.895Z,22.80
2018-07-25T01:55:37.188Z,22.80
2018-07-25T01:58:05.479Z,22.80
2018-07-25T02:00:33.718Z,22.90
2018-07-25T02:03:01.996Z,22.70
2018-07-25T02:05:30.274Z,22.70
2018-07-25T02:07:58.524Z,22.70
2018-07-25T02:10:26.793Z,22.70
2018-07-25T02:12:55.833Z,22.50
2018-07-25T02:15:24.077Z,22.50
2018-07-25T02:17:52.368Z,22.50
2018-07-25T02:20:20.657Z,22.50
2018-07-25T02:22:48.931Z,22.60
2018-07-25T02:25:17.192Z,22.60
2018-07-25T02:27:45.481Z,22.70
2018-07-25T02:30:13.750Z,22.70
2018-07-25T02:32:43.015Z,22.70
2018-07-25T02:35:12.021Z,22.70
2018-07-25T02:37:40.289Z,22.70
2018-07-25T02:40:08.557Z,22.80
2018-07-25T02:42:37.851Z,22.70
2018-07-25T02:45:06.068Z,22.70
2018-07-25T02:47:34.312Z,22.60
2018-07-25T02:50:03.331Z,22.50
2018-07-25T02:52:31.596Z,22.50
2018-07-25T02:54:59.876Z,22.50
2018-07-25T02:57:28.111Z,22.40
2018-07-25T02:59:57.148Z,22.50
2018-07-25T03:02:25.393Z,22.50
2018-07-25T03:04:54.411Z,22.70
2018-07-25T03:07:22.673Z,22.60
2018-07-25T03:09:51.697Z,22.40
2018-07-25T03:12:19.985Z,22.40
2018-07-25T03:14:48.263Z,22.30
2018-07-25T03:17:16.514Z,22.20
2018-07-25T03:19:44.776Z,22.10
2018-07-25T03:22:13.040Z,22.00
2018-07-25T03:24:41.329Z,22.00
2018-07-25T03:27:09.621Z,22.00
2018-07-25T03:29:37.876Z,22.10
2018-07-25T03:32:06.108Z,22.10
2018-07-25T03:34:34.756Z,22.00
2018-07-25T03:37:03.831Z,22.00
2018-07-25T03:39:32.827Z,22.00
2018-07-25T03:42:01.467Z,22.00
2018-07-25T03:44:29.722Z,22.00
2018-07-25T03:46:57.960Z,22.00
2018-07-25T03:49:26.378Z,22.00
2018-07-25T03:51:54.850Z,21.90
2018-07-25T03:54:23.098Z,22.00
2018-07-25T03:56:51.354Z,22.10
2018-07-25T03:59:19.638Z,22.00
2018-07-25T04:01:47.885Z,22.00
2018-07-25T04:04:16.946Z,21.80
2018-07-25T04:06:45.201Z,21.80
2018-07-25T04:09:13.498Z,21.80
2018-07-25T04:11:41.691Z,21.80
2018-07-25T04:14:10.742Z,21.70
2018-07-25T04:16:39.007Z,21.70
2018-07-25T04:19:07.253Z,21.80
2018-07-25T04:21:36.298Z,21.70
2018-07-25T04:24:04.551Z,21.70
2018-07-25T04:26:32.832Z,21.70
2018-07-25T04:29:01.132Z,21.70
2018-07-25T04:31:29.802Z,21.80
2018-07-25T04:33:58.063Z,21.80
2018-07-25T04:36:26.329Z,21.80
2018-07-25T04:38:54.774Z,21.80
2018-07-25T04:41:23.002Z,21.80
2018-07-25T04:43:51.280Z,22.00
2018-07-25T04:46:19.657Z,22.00
2018-07-25T04:48:47.811Z,22.10
2018-07-25T04:51:16.210Z,22.10
2018-07-25T04:53:44.469Z,22.20
2018-07-25T04:56:12.813Z,22.30
2018-07-25T04:58:41.058Z,22.40
2018-07-25T05:01:09.706Z,22.60
2018-07-25T05:03:37.981Z,22.60
2018-07-25T05:06:06.251Z,22.70
2018-07-25T05:08:34.820Z,22.70
2018-07-25T05:11:03.110Z,22.80
2018-07-25T05:13:31.338Z,22.80
2018-07-25T05:16:00.398Z,22.80
2018-07-25T05:18:28.649Z,22.80
2018-07-25T05:20:57.048Z,22.90
2018-07-25T05:23:25.291Z,22.90
2018-07-25T05:25:53.545Z,22.90
2018-07-25T05:28:22.567Z,23.00
2018-07-25T05:30:50.831Z,23.00
2018-07-25T05:33:19.201Z,23.10
2018-07-25T05:35:47.459Z,23.20
2018-07-25T05:38:16.542Z,23.20
2018-07-25T05:40:44.779Z,23.20
2018-07-25T05:43:13.036Z,23.30
2018-07-25T05:45:41.338Z,23.40
2018-07-25T05:48:09.602Z,23.50
2018-07-25T05:50:37.885Z,23.50
2018-07-25T05:53:06.158Z,23.60
2018-07-25T05:55:34.398Z,23.70
2018-07-25T05:58:02.697Z,23.70
2018-07-25T06:00:30.989Z,23.70
2018-07-25T06:02:59.333Z,23.80
2018-07-25T06:05:27.570Z,23.90
2018-07-25T06:07:55.820Z,23.90
2018-07-25T06:10:24.213Z,24.00
2018-07-25T06:12:52.554Z,24.00
2018-07-25T06:15:20.774Z,24.10
2018-07-25T06:17:49.040Z,24.10
2018-07-25T06:20:17.375Z,24.20
2018-07-25T06:22:46.358Z,24.30
2018-07-25T06:25:15.366Z,24.40
2018-07-25T06:27:43.614Z,24.40
2018-07-25T06:30:11.878Z,24.50
2018-07-25T06:32:40.901Z,24.60
2018-07-25T06:35:09.169Z,24.60
2018-07-25T06:37:37.411Z,24.70
2018-07-25T06:40:06.491Z,24.90
2018-07-25T06:42:34.878Z,24.90
2018-07-25T06:45:03.888Z,25.10
2018-07-25T06:47:32.912Z,25.10
2018-07-25T06:50:01.481Z,25.10
2018-07-25T06:52:29.718Z,25.20
2018-07-25T06:54:58.734Z,25.50
2018-07-25T06:57:27.070Z,25.40
2018-07-25T06:59:55.277Z,25.60
2018-07-25T07:02:23.540Z,26.00
2018-07-25T07:04:52.030Z,26.40
2018-07-25T07:07:21.032Z,26.80
2018-07-25T07:09:49.281Z,26.70
2018-07-25T07:12:17.570Z,26.80
2018-07-25T07:14:45.912Z,27.00
2018-07-25T07:17:14.173Z,27.20
2018-07-25T07:19:43.348Z,27.40
2018-07-25T07:22:11.610Z,27.70
2018-07-25T07:24:39.860Z,27.80
2018-07-25T07:27:08.120Z,27.90
2018-07-25T07:29:36.379Z,28.10
2018-07-25T07:32:04.606Z,28.20
2018-07-25T07:34:33.198Z,28.20
2018-07-25T07:37:01.450Z,28.50
2018-07-25T07:39:30.456Z,28.70
2018-07-25T07:41:58.728Z,28.70
2018-07-25T07:44:27.759Z,29.00
2018-07-25T07:46:56.009Z,29.00
2018-07-25T07:49:24.310Z,29.00
2018-07-25T07:51:52.554Z,28.80
2018-07-25T07:54:20.803Z,28.80
2018-07-25T07:56:49.853Z,28.90
2018-07-25T07:59:18.168Z,28.90
2018-07-25T08:01:46.386Z,29.00
2018-07-25T08:04:14.651Z,29.00
2018-07-25T08:06:42.928Z,29.10
2018-07-25T08:09:11.207Z,29.30
2018-07-25T08:11:39.469Z,29.70
2018-07-25T08:14:07.726Z,29.90
2018-07-25T08:16:36.861Z,30.10
2018-07-25T08:19:05.148Z,30.00
2018-07-25T08:21:33.392Z,30.10
2018-07-25T08:24:02.403Z,30.20
2018-07-25T08:26:30.717Z,30.20
2018-07-25T08:28:58.961Z,30.20
2018-07-25T08:31:27.205Z,30.30
2018-07-25T08:33:55.506Z,30.40
2018-07-25T08:36:23.762Z,30.60
2018-07-25T08:38:52.030Z,30.80
2018-07-25T08:41:21.143Z,30.70
2018-07-25T08:43:49.312Z,30.70
2018-07-25T08:46:17.723Z,30.60
2018-07-25T08:48:45.951Z,30.50
2018-07-25T08:51:14.288Z,30.60
2018-07-25T08:53:43.316Z,31.10
2018-07-25T08:56:12.312Z,31.30
2018-07-25T08:58:40.601Z,31.30
2018-07-25T09:01:08.878Z,31.30
2018-07-25T09:03:37.179Z,31.40
2018-07-25T09:06:05.420Z,31.50
2018-07-25T09:08:33.706Z,31.60
2018-07-25T09:11:01.967Z,31.70
2018-07-25T09:13:30.265Z,31.80
2018-07-25T09:15:59.595Z,31.90
2018-07-25T09:18:27.842Z,31.80
2018-07-25T09:20:56.070Z,32.10
2018-07-25T09:23:25.099Z,32.20
2018-07-25T09:25:53.355Z,32.20
2018-07-25T09:28:21.646Z,32.20
2018-07-25T09:30:49.900Z,32.30
2018-07-25T09:33:18.942Z,32.60
2018-07-25T09:35:47.211Z,32.50
2018-07-25T09:38:15.476Z,32.60
2018-07-25T09:40:43.723Z,32.80
2018-07-25T09:43:12.733Z,32.90
2018-07-25T09:45:41.078Z,32.80
2018-07-25T09:48:10.098Z,32.90
2018-07-25T09:50:38.408Z,32.90
2018-07-25T09:53:06.756Z,33.00
2018-07-25T09:55:34.939Z,33.20
2018-07-25T09:58:03.179Z,33.10
2018-07-25T10:00:31.812Z,33.00
2018-07-25T10:03:00.381Z,33.00
2018-07-25T10:05:28.645Z,33.10
2018-07-25T10:07:56.889Z,33.20
2018-07-25T10:10:25.923Z,33.00
2018-07-25T10:12:54.221Z,33.00
2018-07-25T10:15:22.471Z,33.20
2018-07-25T10:17:50.718Z,33.30
2018-07-25T10:20:18.977Z,33.30
2018-07-25T10:22:47.454Z,33.00
2018-07-25T10:25:15.829Z,32.90
2018-07-25T10:27:44.070Z,33.20
2018-07-25T10:30:12.392Z,33.30
2018-07-25T10:32:40.614Z,33.40
2018-07-25T10:35:08.935Z,33.50
2018-07-25T10:37:37.955Z,33.90
2018-07-25T10:40:06.236Z,33.90
2018-07-25T10:42:34.543Z,33.80
2018-07-25T10:45:03.515Z,34.00
2018-07-25T10:47:31.761Z,34.00
2018-07-25T10:50:00.780Z,34.00
2018-07-25T10:52:29.060Z,34.00
2018-07-25T10:54:57.289Z,34.00
2018-07-25T10:57:26.323Z,34.30
2018-07-25T10:59:54.582Z,34.30
2018-07-25T11:02:22.859Z,34.40
2018-07-25T11:04:51.127Z,34.60
2018-07-25T11:07:19.369Z,34.60
2018-07-25T11:09:48.434Z,34.70
2018-07-25T11:12:17.385Z,34.70
2018-07-25T11:14:45.641Z,34.70
2018-07-25T11:17:14.680Z,34.90
2018-07-25T11:19:42.972Z,34.90
2018-07-25T11:22:11.249Z,35.10
2018-07-25T11:24:39.535Z,35.30
2018-07-25T11:27:07.783Z,35.20
2018-07-25T11:29:36.027Z,34.90
2018-07-25T11:32:04.300Z,34.80
2018-07-25T11:34:32.547Z,34.70
2018-07-25T11:37:00.828Z,34.80
2018-07-25T11:39:30.206Z,35.10
2018-07-25T11:41:58.477Z,35.20
2018-07-25T11:44:26.740Z,35.10
2018-07-25T11:46:54.999Z,35.30
2018-07-25T11:49:23.262Z,35.40
2018-07-25T11:51:51.534Z,35.40
2018-07-25T11:54:19.814Z,35.30
2018-07-25T11:56:48.068Z,35.10
2018-07-25T11:59:17.080Z,35.10
2018-07-25T12:01:45.475Z,35.00
2018-07-25T12:04:13.599Z,35.20
2018-07-25T12:06:42.685Z,35.40
2018-07-25T12:09:11.718Z,35.40
2018-07-25T12:11:40.093Z,35.40
2018-07-25T12:14:08.367Z,35.60
2018-07-25T12:16:36.685Z,35.70
2018-07-25T12:19:05.713Z,35.90
2018-07-25T12:21:34.747Z,36.20
2018-07-25T12:24:03.042Z,36.10
2018-07-25T12:26:31.372Z,36.40
2018-07-25T12:29:00.051Z,36.60
2018-07-25T12:31:29.063Z,36.30
2018-07-25T12:33:57.539Z,36.20
2018-07-25T12:36:25.778Z,36.40
2018-07-25T12:38:54.786Z,36.60
2018-07-25T12:41:23.818Z,36.40
2018-07-25T12:43:52.109Z,36.40
2018-07-25T12:46:20.405Z,36.30
2018-07-25T12:48:48.652Z,36.40
2018-07-25T12:51:16.906Z,36.60
2018-07-25T12:53:45.186Z,36.80
2018-07-25T12:56:13.425Z,36.90
2018-07-25T12:58:42.444Z,37.30
2018-07-25T13:01:10.726Z,37.30
2018-07-25T13:03:38.985Z,37.50
2018-07-25T13:06:07.261Z,37.50
2018-07-25T13:08:35.502Z,37.60
2018-07-25T13:11:03.754Z,37.30
2018-07-25T13:13:31.998Z,37.00
2018-07-25T13:16:00.271Z,36.60
2018-07-25T13:18:28.502Z,36.30
2018-07-25T13:20:57.534Z,35.70
2018-07-25T13:23:25.811Z,35.70
2018-07-25T13:25:54.072Z,35.50
2018-07-25T13:28:23.290Z,35.30
2018-07-25T13:30:51.538Z,35.20
2018-07-25T13:33:20.572Z,35.40
2018-07-25T13:35:48.818Z,35.40
2018-07-25T13:38:17.086Z,35.50
2018-07-25T13:40:46.106Z,35.70
2018-07-25T13:43:14.350Z,35.70
2018-07-25T13:45:42.740Z,35.90
2018-07-25T13:48:11.650Z,36.30
2018-07-25T13:50:39.896Z,36.30
2018-07-25T13:53:08.149Z,36.10
2018-07-25T13:55:37.168Z,36.00
2018-07-25T13:58:06.190Z,36.10
2018-07-25T14:00:34.429Z,36.10
2018-07-25T14:03:02.683Z,36.20
2018-07-25T14:05:30.945Z,36.30
2018-07-25T14:07:59.359Z,36.50
2018-07-25T14:10:27.605Z,36.50
2018-07-25T14:12:55.862Z,36.70
2018-07-25T14:15:24.111Z,36.80
2018-07-25T14:17:52.365Z,36.50
2018-07-25T14:20:20.635Z,36.30
2018-07-25T14:22:48.891Z,36.20
2018-07-25T14:25:17.951Z,36.40
2018-07-25T14:27:46.205Z,36.50
2018-07-25T14:30:14.523Z,36.70
2018-07-25T14:32:42.705Z,36.40
2018-07-25T14:35:11.186Z,36.30
2018-07-25T14:37:39.417Z,36.30
2018-07-25T14:40:07.727Z,36.30
2018-07-25T14:42:36.175Z,36.50
2018-07-25T14:45:04.429Z,36.30
2018-07-25T14:47:32.908Z,36.20
2018-07-25T14:50:01.162Z,36.40
2018-07-25T14:52:30.241Z,36.60
2018-07-25T14:54:58.438Z,36.50
2018-07-25T14:57:26.702Z,36.70
2018-07-25T14:59:54.946Z,36.80
2018-07-25T15:02:23.237Z,36.90
2018-07-25T15:04:51.446Z,36.90
2018-07-25T15:07:19.706Z,37.10
2018-07-25T15:09:48.177Z,37.00
2018-07-25T15:12:17.189Z,36.80
2018-07-25T15:14:45.446Z,36.80
2018-07-25T15:17:14.846Z,36.70
2018-07-25T15:19:43.870Z,36.70
2018-07-25T15:22:13.555Z,36.70
2018-07-25T15:24:42.120Z,36.70
2018-07-25T15:27:11.129Z,36.90
2018-07-25T15:29:40.132Z,36.80
2018-07-25T15:32:08.402Z,36.80
2018-07-25T15:34:36.653Z,36.70
2018-07-25T15:37:05.811Z,36.70
2018-07-25T15:39:34.071Z,36.70
2018-07-25T15:42:02.497Z,36.70
2018-07-25T15:44:31.517Z,36.60
2018-07-25T15:46:59.874Z,36.60
2018-07-25T15:49:28.091Z,36.50
2018-07-25T15:51:56.335Z,36.30
2018-07-25T15:54:25.357Z,36.20
2018-07-25T15:56:53.868Z,36.20
2018-07-25T15:59:22.126Z,36.20
2018-07-25T16:01:50.489Z,36.10
2018-07-25T16:04:18.659Z,36.20
2018-07-25T16:06:46.911Z,36.20
2018-07-25T16:09:15.161Z,36.00
2018-07-25T16:11:43.418Z,36.00
2018-07-25T16:14:11.675Z,36.00
2018-07-25T16:16:39.939Z,36.10
2018-07-25T16:19:08.188Z,36.00
2018-07-25T16:21:36.443Z,36.10
2018-07-25T16:24:05.453Z,36.20
2018-07-25T16:26:34.482Z,36.20
2018-07-25T16:29:02.718Z,36.20
2018-07-25T16:31:30.973Z,36.20
2018-07-25T16:33:59.633Z,36.10
2018-07-25T16:36:27.895Z,36.10
2018-07-25T16:38:56.144Z,36.20
2018-07-25T16:41:24.400Z,36.20
2018-07-25T16:43:52.646Z,36.00
2018-07-25T16:46:20.927Z,36.00
2018-07-25T16:48:49.188Z,36.20
2018-07-25T16:51:17.444Z,36.10
2018-07-25T16:53:46.589Z,35.90
2018-07-25T16:56:15.633Z,35.90
2018-07-25T16:58:43.884Z,35.90
2018-07-25T17:01:12.153Z,35.80
2018-07-25T17:03:40.387Z,35.80
2018-07-25T17:06:09.138Z,35.70
2018-07-25T17:08:38.115Z,35.50
2018-07-25T17:11:06.365Z,35.50
2018-07-25T17:13:34.635Z,35.40
2018-07-25T17:16:04.352Z,35.30
2018-07-25T17:18:32.778Z,35.30
2018-07-25T17:21:01.798Z,35.20
2018-07-25T17:23:30.051Z,35.20
2018-07-25T17:25:58.329Z,35.20
2018-07-25T17:28:26.696Z,35.10
2018-07-25T17:30:54.962Z,35.10
2018-07-25T17:33:23.229Z,35.20
2018-07-25T17:35:51.478Z,35.10
2018-07-25T17:38:19.842Z,35.20
2018-07-25T17:40:48.999Z,35.00
2018-07-25T17:43:17.971Z,35.00
2018-07-25T17:45:46.241Z,35.00
2018-07-25T17:48:16.018Z,35.00
2018-07-25T17:50:45.041Z,34.90
2018-07-25T17:53:13.296Z,34.90
2018-07-25T17:55:41.568Z,34.90
2018-07-25T17:58:09.823Z,34.90
2018-07-25T18:00:38.201Z,34.80
2018-07-25T18:03:07.215Z,34.70
2018-07-25T18:05:35.488Z,34.60
2018-07-25T18:08:04.501Z,34.50
2018-07-25T18:10:32.766Z,34.50
2018-07-25T18:13:01.091Z,34.50
2018-07-25T18:15:29.333Z,34.40
2018-07-25T18:17:57.570Z,34.40
2018-07-25T18:20:26.599Z,34.30
2018-07-25T18:22:55.134Z,34.30
2018-07-25T18:25:23.399Z,34.20
2018-07-25T18:27:51.658Z,34.10
2018-07-25T18:30:19.930Z,34.10
2018-07-25T18:32:48.165Z,34.10
2018-07-25T18:35:16.523Z,34.00
2018-07-25T18:37:45.773Z,33.90
2018-07-25T18:40:14.066Z,33.80
2018-07-25T18:42:42.590Z,33.50
2018-07-25T18:45:10.890Z,33.40
2018-07-25T18:47:39.468Z,33.10
2018-07-25T18:50:07.985Z,32.90
2018-07-25T18:52:36.319Z,32.90
2018-07-25T18:55:04.576Z,32.80
2018-07-25T18:57:32.823Z,32.70
2018-07-25T19:00:01.363Z,32.60
2018-07-25T19:02:29.882Z,32.40
2018-07-25T19:04:59.187Z,32.30
2018-07-25T19:07:28.542Z,32.30
2018-07-25T19:09:56.808Z,32.20
2018-07-25T19:12:25.045Z,32.20
2018-07-25T19:14:54.328Z,32.10
2018-07-25T19:17:23.613Z,32.00
2018-07-25T19:19:52.166Z,32.00
2018-07-25T19:22:20.731Z,32.00
2018-07-25T19:24:49.012Z,32.00
2018-07-25T19:27:17.566Z,31.90
2018-07-25T19:29:46.097Z,31.70
2018-07-25T19:32:14.649Z,31.70
2018-07-25T19:34:44.959Z,31.40
2018-07-25T19:37:13.987Z,31.20
2018-07-25T19:39:42.218Z,31.20
2018-07-25T19:42:11.247Z,30.90
2018-07-25T19:44:39.517Z,30.90
2018-07-25T19:47:08.060Z,30.90
2018-07-25T19:49:37.129Z,30.50
2018-07-25T19:52:05.919Z,30.50
2018-07-25T19:54:34.291Z,30.40
2018-07-25T19:57:02.712Z,30.50
2018-07-25T19:59:31.706Z,30.60
2018-07-25T20:02:00.987Z,30.60
2018-07-25T20:04:30.293Z,30.60
2018-07-25T20:06:59.603Z,30.60
2018-07-25T20:09:28.984Z,30.30
2018-07-25T20:11:58.307Z,30.00
2018-07-25T20:14:26.658Z,30.00
2018-07-25T20:16:55.993Z,29.90
2018-07-25T20:19:24.565Z,29.80
2018-07-25T20:21:53.115Z,29.70
2018-07-25T20:24:21.783Z,29.70
2018-07-25T20:26:50.153Z,29.40
2018-07-25T20:29:18.409Z,29.20
2018-07-25T20:31:46.686Z,29.40
2018-07-25T20:34:14.930Z,29.50
2018-07-25T20:36:43.579Z,29.60
2018-07-25T20:39:11.825Z,29.60
2018-07-25T20:41:40.056Z,29.30
2018-07-25T20:44:09.089Z,28.80
2018-07-25T20:46:37.585Z,28.70
2018-07-25T20:49:06.202Z,28.60
2018-07-25T20:51:35.296Z,28.50
2018-07-25T20:54:03.805Z,28.50
2018-07-25T20:56:32.057Z,28.50
2018-07-25T20:59:01.090Z,28.50
2018-07-25T21:01:29.347Z,28.40
2018-07-25T21:03:58.361Z,28.30
2018-07-25T21:06:26.762Z,28.30
2018-07-25T21:08:55.213Z,28.40
2018-07-25T21:11:23.453Z,28.30
2018-07-25T21:13:52.462Z,28.20
2018-07-25T21:16:20.729Z,28.10
2018-07-25T21:18:49.805Z,28.50
2018-07-25T21:21:18.057Z,28.50
2018-07-25T21:23:46.269Z,28.60
2018-07-25T21:26:15.289Z,28.30
2018-07-25T21:28:43.541Z,28.30
2018-07-25T21:31:11.818Z,28.40
2018-07-25T21:33:40.058Z,28.20
2018-07-25T21:36:08.298Z,28.00
2018-07-25T21:38:36.558Z,28.00
2018-07-25T21:41:04.798Z,28.10
2018-07-25T21:43:33.826Z,28.20
2018-07-25T21:46:02.074Z,28.20
2018-07-25T21:48:31.092Z,28.40
2018-07-25T21:50:59.373Z,28.40
2018-07-25T21:53:28.385Z,28.10
2018-07-25T21:55:56.646Z,28.10
2018-07-25T21:58:24.887Z,27.80
2018-07-25T22:00:53.901Z,27.70
2018-07-25T22:03:22.151Z,27.70
2018-07-25T22:05:51.165Z,27.60
2018-07-25T22:08:19.411Z,27.60
2018-07-25T22:10:48.730Z,27.50
2018-07-25T22:13:16.970Z,27.50
2018-07-25T22:15:45.222Z,27.50
2018-07-25T22:18:13.473Z,27.40
2018-07-25T22:20:41.745Z,27.20
2018-07-25T22:23:10.007Z,27.10
2018-07-25T22:25:38.257Z,27.00
2018-07-25T22:28:07.274Z,27.30
2018-07-25T22:30:35.519Z,27.30
2018-07-25T22:33:03.778Z,27.50
2018-07-25T22:35:32.023Z,27.50
2018-07-25T22:38:00.296Z,27.40
2018-07-25T22:40:28.522Z,27.30
2018-07-25T22:42:57.537Z,27.20
2018-07-25T22:45:25.794Z,27.20
2018-07-25T22:47:54.790Z,27.20
2018-07-25T22:50:23.830Z,27.20
2018-07-25T22:52:52.075Z,27.20
2018-07-25T22:55:20.329Z,27.00
2018-07-25T22:57:49.509Z,26.90
2018-07-25T23:00:18.519Z,26.90
2018-07-25T23:02:47.530Z,26.90
2018-07-25T23:05:15.786Z,26.90
2018-07-25T23:07:44.808Z,26.80
2018-07-25T23:10:13.037Z,26.80
2018-07-25T23:12:41.290Z,26.70
2018-07-25T23:15:10.326Z,26.80
2018-07-25T23:17:39.325Z,26.70
2018-07-25T23:20:07.591Z,26.80
2018-07-25T23:22:36.595Z,26.60
2018-07-25T23:25:04.860Z,26.60
2018-07-25T23:27:33.085Z,26.50
2018-07-25T23:30:01.338Z,26.20
2018-07-25T23:32:29.585Z,26.10
2018-07-25T23:34:58.615Z,26.10
2018-07-25T23:37:26.854Z,26.10
2018-07-25T23:39:55.869Z,26.20
2018-07-25T23:42:24.105Z,26.20
2018-07-25T23:44:53.123Z,26.10
2018-07-25T23:47:21.383Z,26.10
2018-07-25T23:49:50.986Z,26.20
2018-07-25T23:52:20.012Z,26.20
2018-07-25T23:54:48.253Z,26.20
2018-07-25T23:57:17.257Z,26.10
2018-07-25T23:59:45.594Z,26.10
